Time;durP1;ratioP1;P1;durP2;ratioP2;P2;SDS_P1;SDS_P2;PMS_P1;PMS_P2;Temp;Humidity;BMP_temperature;BMP_pressure;BME280_temperature;BME280_humidity;BME280_pressure;Samples;Min_cycle;Max_cycle;Signal;HPM_P1;HPM_P2
2023/12/26 00:01:58;;;;;;;0.00;0.00;;;22.90;53.20;;;;;;5093861;28;20198;-50
2023/12/26 00:04:29;;;;;;;0.00;0.00;;;22.90;53.30;;;;;;5093506;28;20200;-49
2023/12/26 00:07:00;;;;;;;0.00;0.00;;;22.90;53.20;;;;;;5093350;28;20649;-48
2023/12/26 00:09:30;;;;;;;0.00;0.00;;;22.90;53.30;;;;;;5093894;28;20190;-50
2023/12/26 00:12:03;;;;;;;0.00;0.00;;;22.90;53.20;;;;;;5093970;28;20200;-48
2023/12/26 00:14:34;;;;;;;0.00;0.00;;;22.90;53.20;;;;;;5093706;28;20269;-45
2023/12/26 00:17:05;;;;;;;0.03;0.03;;;22.90;53.20;;;;;;5093645;28;20190;-53
2023/12/26 00:19:35;;;;;;;0.03;0.03;;;22.90;53.20;;;;;;5092974;28;20235;-46
2023/12/26 00:22:06;;;;;;;0.10;0.10;;;23.00;53.40;;;;;;5093131;28;20194;-49
2023/12/26 00:24:37;;;;;;;0.00;0.00;;;23.00;53.40;;;;;;5093182;28;20251;-46
2023/12/26 00:27:10;;;;;;;0.05;0.05;;;23.00;53.50;;;;;;5093629;28;20209;-51
2023/12/26 00:29:41;;;;;;;0.00;0.00;;;23.00;53.50;;;;;;5093426;28;20235;-48
2023/12/26 00:32:12;;;;;;;0.05;0.05;;;23.00;53.40;;;;;;5093226;28;20308;-50
2023/12/26 00:34:42;;;;;;;0.00;0.00;;;23.00;53.50;;;;;;5093213;28;20283;-47
2023/12/26 00:37:13;;;;;;;0.00;0.00;;;23.00;53.50;;;;;;5093177;28;20198;-46
2023/12/26 00:39:45;;;;;;;0.10;0.10;;;23.10;53.60;;;;;;5093711;28;20178;-50
2023/12/26 00:42:18;;;;;;;0.00;0.00;;;23.10;53.50;;;;;;5093370;28;20194;-49
2023/12/26 00:44:49;;;;;;;0.00;0.00;;;23.10;53.50;;;;;;5093108;28;20603;-48
2023/12/26 00:47:20;;;;;;;0.10;0.10;;;23.10;53.50;;;;;;5093079;28;20194;-51
2023/12/26 00:49:50;;;;;;;0.00;0.00;;;23.10;53.50;;;;;;5092970;28;20197;-46
2023/12/26 00:52:21;;;;;;;0.00;0.00;;;23.20;53.40;;;;;;5092978;28;20204;-53
2023/12/26 00:54:52;;;;;;;0.10;0.10;;;23.20;53.40;;;;;;5092740;28;20226;-47
2023/12/26 00:57:24;;;;;;;0.00;0.00;;;23.20;53.40;;;;;;5092899;28;20200;-47
2023/12/26 00:59:55;;;;;;;0.00;0.00;;;23.20;53.40;;;;;;5090661;28;20194;-48
2023/12/26 01:02:26;;;;;;;0.00;0.00;;;23.20;53.40;;;;;;5092217;28;20277;-45
2023/12/26 01:04:56;;;;;;;0.00;0.00;;;23.20;53.40;;;;;;5092186;28;20217;-50
2023/12/26 01:07:27;;;;;;;0.00;0.00;;;23.20;53.40;;;;;;5092147;28;20200;-44
2023/12/26 01:10:00;;;;;;;0.10;0.10;;;23.20;53.40;;;;;;5092222;28;20579;-50
2023/12/26 01:12:32;;;;;;;0.00;0.00;;;23.20;53.50;;;;;;5092590;28;20281;-47
2023/12/26 01:15:04;;;;;;;0.10;0.10;;;23.20;53.50;;;;;;5092332;28;20686;-47
2023/12/26 01:17:35;;;;;;;0.00;0.00;;;23.30;53.60;;;;;;5092508;28;20195;-47
2023/12/26 01:20:06;;;;;;;0.00;0.00;;;23.30;53.50;;;;;;5092543;28;20229;-47
2023/12/26 01:22:37;;;;;;;0.00;0.00;;;23.30;53.40;;;;;;5092226;28;20416;-46
2023/12/26 01:25:08;;;;;;;0.00;0.00;;;23.30;53.40;;;;;;5091745;28;20210;-47
2023/12/26 01:27:40;;;;;;;0.00;0.00;;;23.30;53.40;;;;;;5092258;28;20544;-46
2023/12/26 01:30:11;;;;;;;0.00;0.00;;;23.30;53.40;;;;;;5091457;28;20194;-47
2023/12/26 01:32:42;;;;;;;0.00;0.00;;;23.40;53.30;;;;;;5091791;28;20204;-47
2023/12/26 01:35:13;;;;;;;0.00;0.00;;;23.40;53.40;;;;;;5091923;28;20222;-46
2023/12/26 01:37:44;;;;;;;0.10;0.10;;;23.40;53.30;;;;;;5092084;28;20241;-49
2023/12/26 01:40:15;;;;;;;0.10;0.10;;;23.30;53.30;;;;;;5092153;28;20197;-46
2023/12/26 01:42:48;;;;;;;0.00;0.00;;;23.40;53.30;;;;;;5092331;28;20201;-47
2023/12/26 01:45:18;;;;;;;0.00;0.00;;;23.40;53.40;;;;;;5092095;28;20214;-45
2023/12/26 01:47:51;;;;;;;0.00;0.00;;;23.40;53.40;;;;;;5091847;28;20190;-49
2023/12/26 01:50:22;;;;;;;0.00;0.00;;;23.40;53.40;;;;;;5092080;28;20585;-47
2023/12/26 01:52:53;;;;;;;0.00;0.00;;;23.40;53.50;;;;;;5091742;28;20204;-47
2023/12/26 01:55:25;;;;;;;0.00;0.00;;;23.40;54.10;;;;;;5091716;28;20248;-46
2023/12/26 01:58:00;;;;;;;0.10;0.10;;;23.40;53.60;;;;;;5091435;28;20351;-44
2023/12/26 02:00:31;;;;;;;0.00;0.00;;;23.40;53.60;;;;;;5091961;28;20220;-45
2023/12/26 02:03:01;;;;;;;0.05;0.05;;;23.40;53.50;;;;;;5091823;28;20653;-47
2023/12/26 02:05:32;;;;;;;0.00;0.00;;;23.40;53.50;;;;;;5091756;28;20214;-46
2023/12/26 02:08:03;;;;;;;0.00;0.00;;;23.40;53.40;;;;;;5090769;28;20262;-46
2023/12/26 02:10:34;;;;;;;0.00;0.00;;;23.50;53.40;;;;;;5091962;28;20285;-47
2023/12/26 02:13:07;;;;;;;0.00;0.00;;;23.40;53.40;;;;;;5091805;28;20194;-46
2023/12/26 02:15:38;;;;;;;0.10;0.10;;;23.40;53.50;;;;;;5091548;28;20222;-46
2023/12/26 02:18:09;;;;;;;0.00;0.00;;;23.40;53.40;;;;;;5091485;28;20193;-46
2023/12/26 02:20:40;;;;;;;0.00;0.00;;;23.40;53.40;;;;;;5091499;28;20198;-45
2023/12/26 02:23:10;;;;;;;0.05;0.05;;;23.50;53.40;;;;;;5090805;28;20190;-48
2023/12/26 02:25:43;;;;;;;0.03;0.03;;;23.50;53.50;;;;;;5091110;28;20241;-47
2023/12/26 02:28:14;;;;;;;0.00;0.00;;;23.50;53.60;;;;;;5091295;28;20280;-45
2023/12/26 02:30:45;;;;;;;0.00;0.00;;;23.50;53.70;;;;;;5091122;28;20198;-46
2023/12/26 02:33:16;;;;;;;0.00;0.00;;;23.50;53.70;;;;;;5091390;28;20186;-47
2023/12/26 02:35:47;;;;;;;0.00;0.00;;;23.50;53.70;;;;;;5091177;28;20225;-47
2023/12/26 02:38:18;;;;;;;0.08;0.08;;;23.50;53.70;;;;;;5091093;28;20257;-47
2023/12/26 02:40:52;;;;;;;0.10;0.10;;;23.50;53.70;;;;;;5091727;28;20196;-47
2023/12/26 02:43:23;;;;;;;0.10;0.10;;;23.50;53.80;;;;;;5075755;28;20208;-46
2023/12/26 02:45:54;;;;;;;0.00;0.00;;;23.50;53.80;;;;;;5074860;28;20219;-46
2023/12/26 02:48:25;;;;;;;0.00;0.00;;;23.50;53.80;;;;;;5075296;28;20198;-46
2023/12/26 02:50:55;;;;;;;0.00;0.00;;;23.50;53.70;;;;;;5074887;28;20221;-47
2023/12/26 02:53:26;;;;;;;0.00;0.00;;;23.50;53.70;;;;;;5074590;28;20201;-45
2023/12/26 02:55:59;;;;;;;0.00;0.00;;;23.50;53.70;;;;;;5074698;28;20593;-43
2023/12/26 02:58:29;;;;;;;0.00;0.00;;;23.50;53.60;;;;;;5083704;28;20186;-46
2023/12/26 03:01:00;;;;;;;0.10;0.10;;;23.50;53.60;;;;;;5095098;28;20658;-47
2023/12/26 03:03:31;;;;;;;0.00;0.00;;;23.60;53.50;;;;;;5095068;28;20204;-46
2023/12/26 03:06:02;;;;;;;0.10;0.10;;;23.60;53.60;;;;;;5094794;28;20220;-50
2023/12/26 03:08:32;;;;;;;0.00;0.00;;;23.60;53.60;;;;;;5094861;28;20206;-48
2023/12/26 03:11:05;;;;;;;0.00;0.00;;;23.60;53.50;;;;;;5094901;28;20198;-47
2023/12/26 03:13:36;;;;;;;0.00;0.00;;;23.60;53.50;;;;;;5094958;28;20194;-44
2023/12/26 03:16:07;;;;;;;0.00;0.00;;;23.60;53.50;;;;;;5094829;28;20256;-46
2023/12/26 03:18:37;;;;;;;0.00;0.00;;;23.60;53.50;;;;;;5094832;28;20201;-47
2023/12/26 03:21:08;;;;;;;0.00;0.00;;;23.60;53.60;;;;;;5094976;28;20196;-42
2023/12/26 03:23:39;;;;;;;0.00;0.00;;;23.60;53.50;;;;;;5094586;28;20661;-43
2023/12/26 03:26:13;;;;;;;0.00;0.00;;;23.60;53.60;;;;;;5094574;28;20220;-44
2023/12/26 03:28:44;;;;;;;0.00;0.00;;;23.70;53.70;;;;;;5095172;28;20201;-46
2023/12/26 03:31:15;;;;;;;0.10;0.10;;;23.60;53.60;;;;;;5094652;28;20202;-43
2023/12/26 03:33:45;;;;;;;0.05;0.05;;;23.70;53.80;;;;;;5094463;28;20191;-46
2023/12/26 03:36:16;;;;;;;0.00;0.00;;;23.60;53.70;;;;;;5094435;28;20702;-43
2023/12/26 03:38:47;;;;;;;0.00;0.00;;;23.70;53.80;;;;;;5094119;28;20252;-46
2023/12/26 03:41:20;;;;;;;0.00;0.00;;;23.70;53.80;;;;;;5094349;28;20198;-46
2023/12/26 03:43:50;;;;;;;0.00;0.00;;;23.70;53.70;;;;;;5094529;28;20682;-46
2023/12/26 03:46:21;;;;;;;0.00;0.00;;;23.70;53.70;;;;;;5093912;28;20218;-47
2023/12/26 03:48:52;;;;;;;0.00;0.00;;;23.70;53.60;;;;;;5093598;28;20201;-43
2023/12/26 03:51:23;;;;;;;0.00;0.00;;;23.70;53.60;;;;;;5093928;28;20285;-46
2023/12/26 03:53:53;;;;;;;0.00;0.00;;;23.70;53.60;;;;;;5093051;28;20526;-47
2023/12/26 03:56:31;;;;;;;0.00;0.00;;;23.70;53.60;;;;;;5093852;28;20614;-49
2023/12/26 03:59:02;;;;;;;0.00;0.00;;;23.80;53.70;;;;;;5093776;28;20198;-42
2023/12/26 04:01:33;;;;;;;0.00;0.00;;;23.80;53.60;;;;;;5094314;28;20200;-45
2023/12/26 04:04:04;;;;;;;0.03;0.03;;;23.80;53.60;;;;;;5093599;28;20194;-43
2023/12/26 04:06:35;;;;;;;0.00;0.00;;;23.80;53.70;;;;;;5093748;28;20222;-48
2023/12/26 04:09:06;;;;;;;0.00;0.00;;;23.80;53.70;;;;;;5094074;28;20194;-43
2023/12/26 04:11:39;;;;;;;0.00;0.00;;;23.80;53.70;;;;;;5094162;28;20194;-45
2023/12/26 04:14:10;;;;;;;0.10;0.10;;;23.80;53.80;;;;;;5093817;28;20216;-45
2023/12/26 04:16:40;;;;;;;0.00;0.00;;;23.80;53.70;;;;;;5093693;28;20214;-45
2023/12/26 04:19:11;;;;;;;0.00;0.00;;;23.80;53.80;;;;;;5093543;28;20212;-44
2023/12/26 04:21:42;;;;;;;0.00;0.00;;;23.80;53.80;;;;;;5093564;28;20564;-46
2023/12/26 04:24:12;;;;;;;0.00;0.00;;;23.80;53.80;;;;;;5093616;28;20190;-43
2023/12/26 04:26:45;;;;;;;0.03;0.03;;;23.80;53.80;;;;;;5093320;28;20210;-46
2023/12/26 04:29:16;;;;;;;0.10;0.10;;;23.80;53.80;;;;;;5093724;28;20650;-46
2023/12/26 04:31:46;;;;;;;0.00;0.00;;;23.80;53.70;;;;;;5093937;28;20684;-49
2023/12/26 04:34:17;;;;;;;0.03;0.03;;;23.80;53.70;;;;;;5093202;28;20206;-51
2023/12/26 04:36:48;;;;;;;0.00;0.00;;;23.80;53.70;;;;;;5092812;28;20209;-51
2023/12/26 04:39:19;;;;;;;0.10;0.10;;;23.80;53.70;;;;;;5093123;28;20273;-51
2023/12/26 04:41:52;;;;;;;0.00;0.00;;;23.80;53.60;;;;;;5092978;28;20650;-45
2023/12/26 04:44:23;;;;;;;0.00;0.00;;;23.80;53.60;;;;;;5093332;28;20216;-51
2023/12/26 04:46:55;;;;;;;0.00;0.00;;;23.80;53.60;;;;;;5093046;28;20198;-50
2023/12/26 04:49:25;;;;;;;0.00;0.00;;;23.80;53.60;;;;;;5093171;28;20195;-53
2023/12/26 04:51:56;;;;;;;0.00;0.00;;;23.80;53.50;;;;;;5092960;28;20250;-47
2023/12/26 04:54:27;;;;;;;0.03;0.03;;;23.80;53.50;;;;;;5092562;28;20190;-50
2023/12/26 04:57:00;;;;;;;0.00;0.00;;;23.80;53.50;;;;;;5093045;28;20217;-47
2023/12/26 04:59:30;;;;;;;0.00;0.00;;;23.80;53.60;;;;;;5092761;28;20198;-49
2023/12/26 05:02:01;;;;;;;0.03;0.03;;;23.80;53.70;;;;;;5092492;28;20220;-46
2023/12/26 05:04:32;;;;;;;0.00;0.00;;;23.80;53.70;;;;;;5091289;28;20194;-50
2023/12/26 05:07:02;;;;;;;0.08;0.08;;;23.90;53.70;;;;;;5092193;28;20194;-51
2023/12/26 05:09:33;;;;;;;0.10;0.10;;;23.90;53.70;;;;;;5091534;28;20190;-46
2023/12/26 05:12:06;;;;;;;0.00;0.00;;;23.80;53.70;;;;;;5092678;28;20194;-45
2023/12/26 05:14:37;;;;;;;0.00;0.00;;;23.90;53.70;;;;;;5092440;28;20224;-51
2023/12/26 05:17:08;;;;;;;0.00;0.00;;;23.90;53.70;;;;;;5092424;28;20194;-49
2023/12/26 05:19:41;;;;;;;0.00;0.00;;;23.90;53.70;;;;;;5091887;28;20186;-50
2023/12/26 05:22:12;;;;;;;0.00;0.00;;;23.90;53.60;;;;;;5092655;28;20668;-49
2023/12/26 05:24:43;;;;;;;0.00;0.00;;;23.90;53.50;;;;;;5092455;28;20221;-51
2023/12/26 05:27:15;;;;;;;0.00;0.00;;;23.90;53.50;;;;;;5092550;28;20202;-46
2023/12/26 05:29:47;;;;;;;0.00;0.00;;;23.90;53.50;;;;;;5092390;28;20217;-46
2023/12/26 05:32:18;;;;;;;0.00;0.00;;;23.90;53.50;;;;;;5092335;28;20648;-48
2023/12/26 05:34:49;;;;;;;0.10;0.10;;;23.90;54.10;;;;;;5092085;28;20222;-47
2023/12/26 05:37:19;;;;;;;0.00;0.00;;;23.90;53.40;;;;;;5092337;28;20545;-49
2023/12/26 05:39:50;;;;;;;0.00;0.00;;;23.90;53.40;;;;;;5092245;28;20194;-51
2023/12/26 05:42:23;;;;;;;0.00;0.00;;;23.90;53.40;;;;;;5091779;28;20201;-47
2023/12/26 05:44:54;;;;;;;0.00;0.00;;;23.90;53.40;;;;;;5092476;28;20701;-50
2023/12/26 05:47:25;;;;;;;0.00;0.00;;;23.90;53.30;;;;;;5092508;28;20190;-45
2023/12/26 05:49:57;;;;;;;0.00;0.00;;;23.90;53.30;;;;;;5092073;28;20187;-50
2023/12/26 05:52:28;;;;;;;0.00;0.00;;;23.90;53.90;;;;;;5092086;28;20421;-50
2023/12/26 05:54:59;;;;;;;0.00;0.00;;;23.90;53.30;;;;;;5091907;28;20760;-49
2023/12/26 05:57:31;;;;;;;0.00;0.00;;;23.90;53.20;;;;;;5091661;28;20202;-49
2023/12/26 06:00:02;;;;;;;0.00;0.00;;;23.80;53.20;;;;;;5091436;28;20205;-50
2023/12/26 06:02:33;;;;;;;0.00;0.00;;;23.90;53.20;;;;;;5092059;28;20197;-48
2023/12/26 06:05:06;;;;;;;0.00;0.00;;;23.90;53.20;;;;;;5091809;28;20214;-47
2023/12/26 06:07:37;;;;;;;0.00;0.00;;;23.80;53.10;;;;;;5091527;28;20259;-51
2023/12/26 06:10:11;;;;;;;0.00;0.00;;;23.80;53.10;;;;;;5091111;28;20198;-51
2023/12/26 06:12:44;;;;;;;0.00;0.00;;;23.80;53.10;;;;;;5091692;28;20552;-49
2023/12/26 06:15:15;;;;;;;0.00;0.00;;;23.80;53.10;;;;;;5074504;28;20248;-50
2023/12/26 06:17:46;;;;;;;0.00;0.00;;;23.80;53.10;;;;;;5097946;28;20202;-50
2023/12/26 06:20:16;;;;;;;0.00;0.00;;;23.80;53.10;;;;;;5098236;28;20197;-50
2023/12/26 06:22:47;;;;;;;0.03;0.03;;;23.80;53.10;;;;;;5098282;28;20194;-50
2023/12/26 06:25:18;;;;;;;0.00;0.00;;;23.80;53.10;;;;;;5097918;28;20377;-49
2023/12/26 06:27:51;;;;;;;0.00;0.00;;;23.80;53.10;;;;;;5098355;28;20193;-47
2023/12/26 06:30:21;;;;;;;0.05;0.05;;;23.80;53.70;;;;;;5098306;28;20213;-52
2023/12/26 06:32:53;;;;;;;0.10;0.10;;;23.70;53.00;;;;;;5098789;28;20201;-46
2023/12/26 06:35:24;;;;;;;0.03;0.03;;;23.70;53.00;;;;;;5097975;28;20670;-47
2023/12/26 06:37:55;;;;;;;0.00;0.00;;;23.70;53.00;;;;;;5098040;28;20212;-48
2023/12/26 06:40:25;;;;;;;0.00;0.00;;;23.70;53.00;;;;;;5097957;28;20190;-46
2023/12/26 06:42:58;;;;;;;0.03;0.03;;;23.70;53.00;;;;;;5098534;28;20193;-48
2023/12/26 06:45:29;;;;;;;0.00;0.00;;;23.70;53.00;;;;;;5097990;28;20221;-50
2023/12/26 06:47:59;;;;;;;0.03;0.03;;;23.70;53.00;;;;;;5097586;28;20194;-47
2023/12/26 06:50:30;;;;;;;0.00;0.00;;;23.70;53.00;;;;;;5097403;28;20220;-46
2023/12/26 06:53:01;;;;;;;0.10;0.10;;;23.60;52.90;;;;;;5097577;28;20198;-47
2023/12/26 06:55:32;;;;;;;0.00;0.00;;;23.60;52.90;;;;;;5097309;28;20232;-49
2023/12/26 06:58:04;;;;;;;0.00;0.00;;;23.60;52.90;;;;;;5097974;28;20197;-47
2023/12/26 07:00:35;;;;;;;0.00;0.00;;;23.60;52.90;;;;;;5098131;28;20229;-43
2023/12/26 07:03:08;;;;;;;0.00;0.00;;;23.60;52.90;;;;;;5098164;28;20194;-47
2023/12/26 07:05:39;;;;;;;0.00;0.00;;;23.60;53.00;;;;;;5097278;28;20221;-51
2023/12/26 07:08:10;;;;;;;0.10;0.10;;;23.50;52.90;;;;;;5097195;28;20202;-47
2023/12/26 07:10:43;;;;;;;0.00;0.00;;;23.50;52.90;;;;;;5097615;28;20193;-48
2023/12/26 07:13:15;;;;;;;0.00;0.00;;;23.50;52.90;;;;;;5097713;28;20194;-43
2023/12/26 07:15:46;;;;;;;0.00;0.00;;;23.50;53.00;;;;;;5097836;28;20246;-44
2023/12/26 07:18:17;;;;;;;0.00;0.00;;;23.50;53.00;;;;;;5097782;28;20240;-46
2023/12/26 07:20:48;;;;;;;0.00;0.00;;;23.50;52.90;;;;;;5097990;28;21444;-45
2023/12/26 07:23:18;;;;;;;0.00;0.00;;;23.50;52.90;;;;;;5097743;28;20194;-46
2023/12/26 07:25:49;;;;;;;0.00;0.00;;;23.50;52.90;;;;;;5097755;28;20213;-49
2023/12/26 07:28:22;;;;;;;0.00;0.00;;;23.40;52.90;;;;;;5094706;28;20205;-49
2023/12/26 07:30:53;;;;;;;0.00;0.00;;;23.40;52.80;;;;;;5094582;28;20654;-46
2023/12/26 07:33:24;;;;;;;0.03;0.03;;;23.40;52.90;;;;;;5094364;28;20201;-46
2023/12/26 07:35:57;;;;;;;0.00;0.00;;;23.40;52.90;;;;;;5094190;28;20547;-47
2023/12/26 07:38:28;;;;;;;0.10;0.10;;;23.40;52.90;;;;;;5094177;28;20209;-46
2023/12/26 07:40:59;;;;;;;0.00;0.00;;;23.40;52.80;;;;;;5094230;28;20204;-45
2023/12/26 07:43:31;;;;;;;0.00;0.00;;;23.40;52.90;;;;;;5094686;28;20202;-45
2023/12/26 07:46:02;;;;;;;0.00;0.00;;;23.40;52.80;;;;;;5094278;28;20222;-44
2023/12/26 07:48:33;;;;;;;0.08;0.08;;;23.30;52.80;;;;;;5094564;28;20201;-45
2023/12/26 07:51:04;;;;;;;0.00;0.00;;;23.30;52.80;;;;;;5094127;28;20194;-44
2023/12/26 07:53:34;;;;;;;0.00;0.00;;;23.30;52.80;;;;;;5093926;28;20204;-48
2023/12/26 07:56:05;;;;;;;0.10;0.10;;;23.30;52.80;;;;;;5093708;28;20556;-45
2023/12/26 07:58:38;;;;;;;0.00;0.00;;;23.30;52.80;;;;;;5094367;28;20197;-50
2023/12/26 08:01:12;;;;;;;0.00;0.00;;;23.30;52.80;;;;;;5094211;28;20285;-43
2023/12/26 08:03:43;;;;;;;0.10;0.10;;;23.30;52.80;;;;;;5093792;28;20536;-44
2023/12/26 08:06:13;;;;;;;0.10;0.10;;;23.30;52.80;;;;;;5093839;28;20228;-49
2023/12/26 08:08:44;;;;;;;0.00;0.00;;;23.30;52.80;;;;;;5093800;28;20208;-48
2023/12/26 08:11:15;;;;;;;0.10;0.10;;;23.30;52.80;;;;;;5094100;28;20198;-46
2023/12/26 08:13:47;;;;;;;0.08;0.08;;;23.20;52.80;;;;;;5094154;28;20231;-47
2023/12/26 08:16:18;;;;;;;0.00;0.00;;;23.30;52.80;;;;;;5093195;28;20226;-46
2023/12/26 08:18:49;;;;;;;0.00;0.00;;;23.20;52.70;;;;;;5094060;28;20204;-50
2023/12/26 08:21:20;;;;;;;0.00;0.00;;;23.20;52.80;;;;;;5093807;28;20281;-46
2023/12/26 08:23:51;;;;;;;0.00;0.00;;;23.10;52.70;;;;;;5093461;28;20198;-44
2023/12/26 08:26:22;;;;;;;0.00;0.00;;;23.20;52.70;;;;;;5093323;28;20218;-48
2023/12/26 08:28:55;;;;;;;0.00;0.00;;;23.20;52.80;;;;;;5093231;28;20373;-50
2023/12/26 08:31:26;;;;;;;0.00;0.00;;;23.10;52.70;;;;;;5093119;28;20263;-47
2023/12/26 08:33:57;;;;;;;0.00;0.00;;;23.10;52.70;;;;;;5092907;28;20665;-48
2023/12/26 08:36:30;;;;;;;0.10;0.10;;;23.10;52.70;;;;;;5092860;28;20229;-47
2023/12/26 08:39:01;;;;;;;0.00;0.00;;;23.10;52.70;;;;;;5092708;28;20224;-50
2023/12/26 08:41:32;;;;;;;0.00;0.00;;;23.10;52.70;;;;;;5092905;28;20194;-47
2023/12/26 08:44:04;;;;;;;0.00;0.00;;;23.10;52.70;;;;;;5093695;28;20194;-47
2023/12/26 08:46:35;;;;;;;0.00;0.00;;;23.10;52.70;;;;;;5093439;28;20717;-43
2023/12/26 08:49:06;;;;;;;0.10;0.10;;;23.10;52.70;;;;;;5093222;28;20194;-50
2023/12/26 08:51:41;;;;;;;0.00;0.00;;;23.00;52.70;;;;;;5093197;28;20198;-49
2023/12/26 08:54:11;;;;;;;0.00;0.00;;;23.10;52.70;;;;;;5092546;28;20193;-50
2023/12/26 08:56:42;;;;;;;0.00;0.00;;;23.10;52.70;;;;;;5093003;28;20253;-48
2023/12/26 08:59:15;;;;;;;0.08;0.08;;;23.00;52.70;;;;;;5093347;28;20198;-44
2023/12/26 09:01:45;;;;;;;0.00;0.00;;;23.00;52.60;;;;;;5092892;28;20758;-49
2023/12/26 09:04:16;;;;;;;0.00;0.00;;;23.00;52.60;;;;;;5092519;28;20199;-47
2023/12/26 09:06:47;;;;;;;0.00;0.00;;;23.00;52.60;;;;;;5092066;28;20201;-46
2023/12/26 09:09:18;;;;;;;0.00;0.00;;;23.00;52.70;;;;;;5090943;28;20200;-48
2023/12/26 09:11:48;;;;;;;0.00;0.00;;;23.00;52.70;;;;;;5092709;28;20194;-44
2023/12/26 09:14:21;;;;;;;0.03;0.03;;;22.90;52.60;;;;;;5092296;28;20223;-44
2023/12/26 09:16:52;;;;;;;0.00;0.00;;;22.90;52.60;;;;;;5092359;28;20222;-48
2023/12/26 09:19:23;;;;;;;0.03;0.03;;;23.00;52.70;;;;;;5092617;28;20251;-49
2023/12/26 09:21:54;;;;;;;0.00;0.00;;;22.90;52.80;;;;;;5092628;28;20281;-47
2023/12/26 09:24:24;;;;;;;0.00;0.00;;;22.90;52.60;;;;;;5092294;28;20661;-48
2023/12/26 09:26:55;;;;;;;0.00;0.00;;;22.90;52.60;;;;;;5092224;28;20200;-49
2023/12/26 09:29:28;;;;;;;0.00;0.00;;;22.90;52.70;;;;;;5092165;28;20198;-48
2023/12/26 09:31:58;;;;;;;0.00;0.00;;;22.90;52.70;;;;;;5092270;28;20198;-49
2023/12/26 09:34:29;;;;;;;0.05;0.05;;;22.90;52.60;;;;;;5092223;28;20210;-46
2023/12/26 09:37:00;;;;;;;0.00;0.00;;;22.90;52.70;;;;;;5092441;28;20230;-47
2023/12/26 09:39:30;;;;;;;0.05;0.05;;;22.90;52.70;;;;;;5091688;28;20190;-50
2023/12/26 09:42:04;;;;;;;0.00;0.00;;;22.80;52.60;;;;;;5091720;28;20196;-50
2023/12/26 09:44:37;;;;;;;0.00;0.00;;;22.80;52.60;;;;;;5092457;28;20193;-50
2023/12/26 09:47:09;;;;;;;0.00;0.00;;;22.80;52.60;;;;;;5092310;28;20201;-44
2023/12/26 09:49:43;;;;;;;0.10;0.10;;;22.80;52.60;;;;;;5092344;28;20198;-47
2023/12/26 09:52:15;;;;;;;0.00;0.00;;;22.80;52.60;;;;;;5091331;28;20197;-48
2023/12/26 09:54:48;;;;;;;0.03;0.03;;;22.80;52.60;;;;;;5091379;28;20210;-46
2023/12/26 09:57:19;;;;;;;0.10;0.10;;;22.70;52.50;;;;;;5091764;28;20230;-48
2023/12/26 09:59:52;;;;;;;0.08;0.08;;;22.80;52.60;;;;;;5091764;28;20201;-47
2023/12/26 10:02:23;;;;;;;0.00;0.00;;;22.80;52.60;;;;;;5092125;28;20194;-50
2023/12/26 10:04:54;;;;;;;0.00;0.00;;;22.70;52.60;;;;;;5091700;28;20220;-48
2023/12/26 10:07:25;;;;;;;0.10;0.10;;;22.70;52.60;;;;;;5091711;28;20200;-53
2023/12/26 10:09:55;;;;;;;0.00;0.00;;;22.70;52.60;;;;;;5091397;28;20273;-50
2023/12/26 10:12:32;;;;;;;0.10;0.10;;;22.70;52.60;;;;;;5091801;28;20205;-51
2023/12/26 10:15:06;;;;;;;0.10;0.10;;;22.70;52.60;;;;;;5091608;28;20731;-51
2023/12/26 10:17:36;;;;;;;0.00;0.00;;;22.60;52.60;;;;;;5091494;28;20727;-47
2023/12/26 10:20:08;;;;;;;0.10;0.10;;;22.70;52.60;;;;;;5091759;28;20198;-45
2023/12/26 10:22:38;;;;;;;0.00;0.00;;;22.60;52.50;;;;;;5090943;28;20249;-44
2023/12/26 10:25:10;;;;;;;0.00;0.00;;;22.60;52.80;;;;;;5090897;28;20581;-45
2023/12/26 10:27:41;;;;;;;0.00;0.00;;;22.60;52.60;;;;;;5091417;28;20533;-46
2023/12/26 10:30:21;;;;;;;0.00;0.00;;;22.60;52.60;;;;;;5091241;28;20190;-49
2023/12/26 10:33:01;;;;;;;0.00;0.00;;;22.60;52.60;;;;;;5091607;28;20272;-47
2023/12/26 10:35:33;;;;;;;0.08;0.08;;;22.60;52.60;;;;;;5091480;28;20228;-47
2023/12/26 10:38:05;;;;;;;0.00;0.00;;;22.60;52.60;;;;;;5091475;28;20230;-48
2023/12/26 10:40:36;;;;;;;0.10;0.10;;;22.60;52.50;;;;;;5091355;28;20259;-48
2023/12/26 10:43:08;;;;;;;0.00;0.00;;;22.60;52.60;;;;;;5091651;28;20198;-47
2023/12/26 10:45:40;;;;;;;0.00;0.00;;;22.50;52.50;;;;;;5090883;28;20292;-47
2023/12/26 10:48:12;;;;;;;0.10;0.10;;;22.50;52.50;;;;;;5091603;28;20211;-51
2023/12/26 10:50:43;;;;;;;0.10;0.10;;;22.50;52.50;;;;;;5091442;28;20597;-48
2023/12/26 10:53:19;;;;;;;0.00;0.00;;;22.50;52.50;;;;;;5091683;28;20194;-49
2023/12/26 10:55:51;;;;;;;0.00;0.00;;;22.50;52.60;;;;;;5091386;28;20218;-44
2023/12/26 10:58:29;;;;;;;0.10;0.10;;;22.50;52.50;;;;;;5091500;28;20662;-46
2023/12/26 11:01:01;;;;;;;0.00;0.00;;;22.50;52.60;;;;;;5091043;28;20190;-50
2023/12/26 13:52:30;;;;;;;0.00;0.00;;;21.70;52.60;;;;;;5091822;28;20181;-44
2023/12/26 13:55:36;;;;;;;0.00;0.00;;;21.70;52.60;;;;;;5071620;28;20214;-47
2023/12/26 13:58:41;;;;;;;0.00;0.00;;;21.70;52.60;;;;;;5071778;28;20223;-48
2023/12/26 14:01:47;;;;;;;0.00;0.00;;;21.60;52.60;;;;;;5084996;28;20662;-43
2023/12/26 14:04:53;;;;;;;0.00;0.00;;;21.60;52.60;;;;;;5091643;28;20193;-48
2023/12/26 14:07:59;;;;;;;0.00;0.00;;;21.60;52.60;;;;;;5091875;28;20854;-46
2023/12/26 14:11:04;;;;;;;0.08;0.08;;;21.60;52.50;;;;;;5091714;28;20658;-46
2023/12/26 14:14:10;;;;;;;0.00;0.00;;;21.60;52.60;;;;;;5091997;28;20200;-45
2023/12/26 14:17:16;;;;;;;0.00;0.00;;;21.60;52.60;;;;;;5091543;28;20586;-45
2023/12/26 14:20:22;;;;;;;0.00;0.00;;;21.60;52.50;;;;;;5091708;28;20202;-45
2023/12/26 14:23:27;;;;;;;0.00;0.00;;;21.60;52.60;;;;;;5091224;28;20196;-45
2023/12/26 14:26:34;;;;;;;0.00;0.00;;;21.60;52.60;;;;;;5090772;28;20676;-43
2023/12/26 14:29:40;;;;;;;0.00;0.00;;;21.60;52.60;;;;;;5091426;28;20197;-45
2023/12/26 14:32:46;;;;;;;0.00;0.00;;;21.60;52.60;;;;;;5091785;28;20209;-42
2023/12/26 14:35:51;;;;;;;0.00;0.00;;;21.60;52.60;;;;;;5091286;28;20232;-45
2023/12/26 14:38:57;;;;;;;0.05;0.05;;;21.60;52.50;;;;;;5094913;28;20229;-46
2023/12/26 14:42:03;;;;;;;0.00;0.00;;;21.60;52.60;;;;;;5095519;28;20198;-42
2023/12/26 14:45:09;;;;;;;0.00;0.00;;;21.60;52.50;;;;;;5095998;28;20224;-44
2023/12/26 14:48:15;;;;;;;0.00;0.00;;;21.50;52.50;;;;;;5095426;28;20190;-42
2023/12/26 14:51:20;;;;;;;0.00;0.00;;;21.50;52.50;;;;;;5094394;28;20569;-43
2023/12/26 14:54:26;;;;;;;0.00;0.00;;;21.50;52.50;;;;;;5095512;28;20212;-45
2023/12/26 14:57:32;;;;;;;0.00;0.00;;;21.50;52.50;;;;;;5095201;28;20586;-45
2023/12/26 15:00:38;;;;;;;0.00;0.00;;;21.50;52.50;;;;;;5074961;28;20558;-48
2023/12/26 15:03:10;;;;;;;0.00;0.00;;;21.50;52.50;;;;;;5095112;28;20197;-45
2023/12/26 15:05:41;;;;;;;0.00;0.00;;;21.50;52.40;;;;;;5095028;28;20682;-46
2023/12/26 15:08:12;;;;;;;0.10;0.10;;;21.50;52.50;;;;;;5095095;28;20564;-45
2023/12/26 15:10:42;;;;;;;0.00;0.00;;;21.40;52.40;;;;;;5094552;28;20552;-45
2023/12/26 15:13:13;;;;;;;0.00;0.00;;;21.40;52.50;;;;;;5094662;28;20208;-46
2023/12/26 15:15:44;;;;;;;0.00;0.00;;;21.40;52.40;;;;;;5094799;28;20213;-45
2023/12/26 15:18:17;;;;;;;0.00;0.00;;;21.50;52.40;;;;;;5095047;28;20222;-48
2023/12/26 15:20:48;;;;;;;0.00;0.00;;;21.40;53.00;;;;;;5094862;28;20205;-46
2023/12/26 15:23:18;;;;;;;0.00;0.00;;;21.40;52.40;;;;;;5094479;28;20194;-47
2023/12/26 15:25:49;;;;;;;0.10;0.10;;;21.40;52.30;;;;;;5094425;28;20459;-43
2023/12/26 15:28:20;;;;;;;0.00;0.00;;;21.40;52.30;;;;;;5094647;28;20198;-46
2023/12/26 15:30:51;;;;;;;0.10;0.10;;;21.40;52.30;;;;;;5094260;28;20315;-43
2023/12/26 15:33:23;;;;;;;0.10;0.10;;;21.40;52.30;;;;;;5094783;28;20194;-46
2023/12/26 15:35:54;;;;;;;0.00;0.00;;;21.40;52.30;;;;;;5094562;28;20697;-48
2023/12/26 15:38:25;;;;;;;0.00;0.00;;;21.40;52.30;;;;;;5076427;28;20221;-43
2023/12/26 15:40:56;;;;;;;0.08;0.08;;;21.40;52.30;;;;;;5094542;28;20720;-45
2023/12/26 15:43:26;;;;;;;0.00;0.00;;;21.40;52.30;;;;;;5094351;28;20502;-42
2023/12/26 15:45:57;;;;;;;0.00;0.00;;;21.40;52.30;;;;;;5094038;28;20218;-44
2023/12/26 15:48:30;;;;;;;0.00;0.00;;;21.40;52.30;;;;;;5092935;28;20632;-44
2023/12/26 15:51:01;;;;;;;0.00;0.00;;;21.40;52.30;;;;;;5094109;28;20284;-43
2023/12/26 15:53:32;;;;;;;0.00;0.00;;;21.40;52.20;;;;;;5094300;28;20196;-45
2023/12/26 15:56:04;;;;;;;0.10;0.10;;;21.30;52.20;;;;;;5094256;28;20220;-44
2023/12/26 15:58:35;;;;;;;0.00;0.00;;;21.30;52.20;;;;;;5093986;28;20221;-46
2023/12/26 16:01:06;;;;;;;0.00;0.00;;;21.30;52.20;;;;;;5093551;28;20444;-46
2023/12/26 16:03:38;;;;;;;0.00;0.00;;;21.30;52.20;;;;;;5094073;28;20202;-44
2023/12/26 16:06:10;;;;;;;0.00;0.00;;;21.30;52.20;;;;;;5094189;28;20219;-45
2023/12/26 16:08:40;;;;;;;0.00;0.00;;;21.30;52.20;;;;;;5094107;28;20255;-46
2023/12/26 16:11:11;;;;;;;0.00;0.00;;;21.30;52.20;;;;;;5093539;28;20198;-44